createdAt,value
2018-03-07T00:01:25.311Z,54.37
2018-03-07T00:03:52.501Z,58.53
2018-03-07T00:06:19.985Z,57.43
2018-03-07T00:08:46.502Z,54.77
2018-03-07T00:11:13.019Z,58.57
2018-03-07T00:13:39.495Z,54.87
2018-03-07T00:16:05.985Z,54.33
2018-03-07T00:18:32.472Z,57.40
2018-03-07T00:20:59.053Z,55.87
2018-03-07T00:23:25.572Z,58.27
2018-03-07T00:25:52.844Z,60.07
2018-03-07T00:28:19.426Z,56.27
2018-03-07T00:30:45.906Z,54.87
2018-03-07T00:33:13.146Z,60.20
2018-03-07T00:35:39.631Z,58.63
2018-03-07T00:38:06.138Z,58.10
2018-03-07T00:40:32.685Z,60.30
2018-03-07T00:42:59.193Z,56.27
2018-03-07T00:45:26.449Z,61.27
2018-03-07T00:47:53.743Z,64.97
2018-03-07T00:50:20.265Z,59.37
2018-03-07T00:52:46.783Z,68.13
2018-03-07T00:55:13.292Z,61.37
2018-03-07T00:57:39.795Z,68.17
2018-03-07T01:00:06.289Z,64.63
2018-03-07T01:02:32.800Z,61.37
2018-03-07T01:04:59.286Z,62.83
2018-03-07T01:07:25.828Z,64.43
2018-03-07T01:09:52.333Z,56.30
2018-03-07T01:12:18.851Z,59.43
2018-03-07T01:14:46.085Z,56.20
2018-03-07T01:17:12.590Z,60.57
2018-03-07T01:19:39.147Z,58.40
2018-03-07T01:22:05.670Z,61.67
2018-03-07T01:24:33.215Z,59.60
2018-03-07T01:26:59.715Z,62.90
2018-03-07T01:29:26.190Z,65.27
2018-03-07T01:31:52.678Z,64.90
2018-03-07T01:34:19.171Z,61.53
2018-03-07T01:36:45.675Z,58.77
2018-03-07T01:39:12.266Z,56.20
2018-03-07T01:41:38.759Z,54.80
2018-03-07T01:44:05.264Z,55.30
2018-03-07T01:46:31.803Z,63.77
2018-03-07T01:48:58.277Z,58.23
2018-03-07T01:51:36.855Z,59.10
2018-03-07T01:54:03.407Z,54.60
2018-03-07T01:56:29.917Z,55.40
2018-03-07T01:58:56.419Z,63.13
2018-03-07T02:01:22.976Z,60.73
2018-03-07T02:03:50.263Z,63.60
2018-03-07T02:06:16.750Z,60.67
2018-03-07T02:08:43.278Z,61.20
2018-03-07T02:11:09.872Z,61.43
2018-03-07T02:13:36.349Z,59.30
2018-03-07T02:16:02.839Z,56.87
2018-03-07T02:18:29.333Z,58.23
2018-03-07T02:20:55.814Z,62.60
2018-03-07T02:23:22.311Z,65.80
2018-03-07T02:25:48.769Z,59.73
2018-03-07T02:28:15.285Z,59.90
2018-03-07T02:30:42.519Z,61.43
2018-03-07T02:33:08.995Z,68.00
2018-03-07T02:35:35.564Z,59.57
2018-03-07T02:38:02.059Z,59.50
2018-03-07T02:40:28.556Z,61.40
2018-03-07T02:42:55.114Z,61.20
2018-03-07T02:45:21.641Z,58.90
2018-03-07T02:47:48.895Z,61.67
2018-03-07T02:50:15.434Z,55.13
2018-03-07T02:52:42.654Z,60.53
2018-03-07T02:55:09.155Z,64.00
2018-03-07T02:57:35.634Z,59.23
2018-03-07T03:00:02.123Z,61.50
2018-03-07T03:02:28.621Z,60.27
2018-03-07T03:04:55.844Z,60.10
2018-03-07T03:07:22.351Z,65.50
2018-03-07T03:09:48.894Z,56.20
2018-03-07T03:12:16.160Z,54.03
2018-03-07T03:14:42.668Z,53.13
2018-03-07T03:17:09.220Z,60.37
2018-03-07T03:19:35.735Z,56.93
2018-03-07T03:22:02.220Z,62.53
2018-03-07T03:24:28.724Z,60.97
2018-03-07T03:26:55.232Z,56.10
2018-03-07T03:29:21.768Z,60.90
2018-03-07T03:31:48.249Z,63.03
2018-03-07T03:34:14.761Z,59.67
2018-03-07T03:36:41.297Z,63.47
2018-03-07T03:39:07.824Z,63.33
2018-03-07T03:41:34.309Z,55.20
2018-03-07T03:44:00.821Z,67.97
2018-03-07T03:46:27.335Z,60.63
2018-03-07T03:48:53.820Z,60.67
2018-03-07T03:51:20.315Z,60.97
2018-03-07T03:53:46.854Z,57.73
2018-03-07T03:56:13.446Z,66.67
2018-03-07T03:58:40.025Z,65.13
2018-03-07T04:01:06.520Z,68.03
2018-03-07T04:03:33.087Z,62.90
2018-03-07T04:06:00.351Z,66.17
2018-03-07T04:08:26.909Z,61.67
2018-03-07T04:10:53.505Z,62.20
2018-03-07T04:13:20.068Z,58.13
2018-03-07T04:15:47.326Z,62.67
2018-03-07T04:18:13.815Z,56.77
2018-03-07T04:20:40.294Z,66.90
2018-03-07T04:23:06.806Z,70.43
2018-03-07T04:25:33.388Z,63.60
2018-03-07T04:27:59.967Z,62.60
2018-03-07T04:30:26.451Z,67.87
2018-03-07T04:32:52.959Z,57.27
2018-03-07T04:35:19.443Z,59.50
2018-03-07T04:37:46.701Z,62.57
2018-03-07T04:40:13.917Z,59.90
2018-03-07T04:42:40.412Z,66.63
2018-03-07T04:45:06.962Z,57.57
2018-03-07T04:47:33.449Z,70.77
2018-03-07T04:50:00.679Z,62.87
2018-03-07T04:52:27.155Z,63.90
2018-03-07T04:54:53.727Z,65.33
2018-03-07T04:57:20.238Z,65.70
2018-03-07T04:59:46.727Z,65.37
2018-03-07T05:02:13.239Z,63.57
2018-03-07T05:04:39.770Z,64.33
2018-03-07T05:07:06.263Z,58.37
2018-03-07T05:09:32.814Z,66.80
2018-03-07T05:11:59.332Z,62.93
2018-03-07T05:14:25.834Z,67.73
2018-03-07T05:16:52.416Z,62.43
2018-03-07T05:19:18.912Z,70.70
2018-03-07T05:21:45.411Z,69.23
2018-03-07T05:24:11.891Z,69.43
2018-03-07T05:26:38.373Z,70.90
2018-03-07T05:29:04.993Z,69.87
2018-03-07T05:31:31.514Z,70.07
2018-03-07T05:33:58.070Z,65.80
2018-03-07T05:36:24.546Z,70.97
2018-03-07T05:38:51.160Z,77.33
2018-03-07T05:41:17.658Z,70.20
2018-03-07T05:43:44.174Z,69.27
2018-03-07T05:46:11.425Z,74.33
2018-03-07T05:48:38.692Z,69.57
2018-03-07T05:51:05.910Z,71.77
2018-03-07T05:53:32.385Z,67.77
2018-03-07T05:55:58.865Z,70.17
2018-03-07T05:58:25.418Z,69.33
2018-03-07T06:00:51.895Z,66.90
2018-03-07T06:03:18.356Z,70.93
2018-03-07T06:05:44.910Z,66.73
2018-03-07T06:08:12.128Z,66.27
2018-03-07T06:10:38.639Z,61.90
2018-03-07T06:13:05.890Z,67.47
2018-03-07T06:15:33.113Z,67.87
2018-03-07T06:17:59.684Z,66.77
2018-03-07T06:20:26.232Z,71.87
2018-03-07T06:22:53.555Z,65.87
2018-03-07T06:25:20.056Z,69.87
2018-03-07T06:27:46.569Z,68.80
2018-03-07T06:30:13.629Z,66.80
2018-03-07T06:32:40.128Z,69.13
2018-03-07T06:35:06.706Z,69.83
2018-03-07T06:37:33.308Z,69.80
2018-03-07T06:39:59.837Z,67.70
2018-03-07T06:42:26.359Z,63.43
2018-03-07T06:47:55.994Z,69.03
2018-03-07T06:50:22.519Z,67.13
2018-03-07T06:52:49.866Z,64.37
2018-03-07T06:55:17.104Z,66.03
2018-03-07T06:57:43.592Z,69.97
2018-03-07T07:00:10.068Z,61.47
2018-03-07T07:02:37.278Z,67.53
2018-03-07T07:05:03.757Z,65.40
2018-03-07T07:07:30.322Z,63.20
2018-03-07T07:09:56.883Z,72.13
2018-03-07T07:12:23.398Z,75.47
2018-03-07T07:14:49.902Z,70.47
2018-03-07T07:17:16.406Z,65.63
2018-03-07T07:19:42.959Z,78.03
2018-03-07T07:22:09.526Z,77.20
2018-03-07T07:24:36.799Z,69.50
2018-03-07T07:27:03.446Z,69.20
2018-03-07T07:29:29.931Z,74.63
2018-03-07T07:31:56.456Z,73.53
2018-03-07T07:34:22.990Z,66.77
2018-03-07T07:36:49.458Z,70.43
2018-03-07T07:39:15.968Z,68.77
2018-03-07T07:41:42.463Z,80.43
2018-03-07T07:44:08.962Z,71.83
2018-03-07T07:46:35.508Z,73.80
2018-03-07T07:49:02.777Z,75.27
2018-03-07T07:51:29.367Z,51.57
2018-03-07T07:53:55.905Z,52.33
2018-03-07T07:56:22.435Z,54.43
2018-03-07T07:58:48.994Z,54.73
2018-03-07T08:01:15.524Z,53.87
2018-03-07T08:03:41.997Z,54.63
2018-03-07T08:06:08.484Z,51.50
2018-03-07T08:08:34.972Z,51.73
2018-03-07T08:11:01.489Z,49.70
2018-03-07T08:13:27.989Z,55.33
2018-03-07T08:15:54.472Z,56.63
2018-03-07T08:18:21.074Z,56.40
2018-03-07T08:20:47.553Z,50.07
2018-03-07T08:23:14.097Z,52.20
2018-03-07T08:25:40.617Z,54.23
2018-03-07T08:28:07.172Z,62.63
2018-03-07T08:30:33.722Z,60.43
2018-03-07T08:33:00.239Z,62.57
2018-03-07T08:35:26.725Z,61.53
2018-03-07T08:37:53.246Z,58.30
2018-03-07T08:40:19.770Z,61.30
2018-03-07T08:42:46.262Z,54.67
2018-03-07T08:45:12.764Z,51.57
2018-03-07T08:47:39.994Z,57.00
2018-03-07T08:50:06.530Z,58.17
2018-03-07T08:52:33.007Z,56.77
2018-03-07T08:54:59.515Z,57.37
2018-03-07T08:57:26.006Z,54.90
2018-03-07T08:59:52.490Z,55.80
2018-03-07T09:02:19.081Z,58.07
2018-03-07T09:04:45.602Z,65.33
2018-03-07T09:07:12.125Z,62.77
2018-03-07T09:09:38.618Z,61.77
2018-03-07T09:12:05.097Z,57.07
2018-03-07T09:14:31.634Z,58.93
2018-03-07T09:16:58.131Z,59.20
2018-03-07T09:19:24.694Z,52.00
2018-03-07T09:21:51.202Z,51.13
2018-03-07T09:24:17.695Z,46.67
2018-03-07T09:26:44.203Z,51.03
2018-03-07T09:29:10.696Z,52.17
2018-03-07T09:31:37.212Z,61.97
2018-03-07T09:34:03.722Z,59.83
2018-03-07T09:36:30.265Z,56.63
2018-03-07T09:38:56.771Z,58.67
2018-03-07T09:41:24.037Z,56.20
2018-03-07T09:43:50.561Z,60.77
2018-03-07T09:46:17.094Z,51.43
2018-03-07T09:48:43.653Z,53.30
2018-03-07T09:51:10.146Z,51.27
2018-03-07T09:53:36.618Z,53.87
2018-03-07T09:56:03.240Z,55.80
2018-03-07T09:58:29.777Z,54.03
2018-03-07T10:00:56.304Z,57.83
2018-03-07T10:03:23.537Z,51.30
2018-03-07T10:05:50.057Z,50.87
2018-03-07T10:08:16.584Z,44.10
2018-03-07T10:10:43.823Z,50.73
2018-03-07T10:13:10.338Z,48.93
2018-03-07T10:15:36.924Z,46.07
2018-03-07T10:18:03.415Z,40.10
2018-03-07T10:20:30.000Z,40.83
2018-03-07T10:22:56.505Z,41.60
2018-03-07T10:25:23.035Z,40.87
2018-03-07T10:27:49.636Z,42.07
2018-03-07T10:30:16.143Z,45.60
2018-03-07T10:32:42.641Z,42.07
2018-03-07T10:35:09.411Z,41.60
2018-03-07T10:37:35.886Z,39.33
2018-03-07T10:40:03.109Z,43.57
2018-03-07T10:42:29.682Z,45.33
2018-03-07T10:44:56.208Z,43.50
2018-03-07T10:47:23.461Z,45.20
2018-03-07T10:49:50.690Z,44.10
2018-03-07T10:52:17.159Z,42.87
2018-03-07T10:54:43.943Z,44.13
2018-03-07T10:57:10.437Z,42.83
2018-03-07T10:59:37.002Z,41.17
2018-03-07T11:02:03.567Z,41.63
2018-03-07T11:04:30.070Z,40.20
2018-03-07T11:06:56.562Z,40.70
2018-03-07T11:09:23.803Z,39.27
2018-03-07T11:11:51.037Z,37.73
2018-03-07T11:14:17.554Z,36.93
2018-03-07T11:16:44.045Z,33.63
2018-03-07T11:19:10.526Z,33.13
2018-03-07T11:21:37.026Z,32.13
2018-03-07T11:24:03.710Z,27.37
2018-03-07T11:26:30.231Z,30.40
2018-03-07T11:28:57.463Z,30.70
2018-03-07T11:31:23.992Z,29.83
2018-03-07T11:33:50.485Z,25.03
2018-03-07T11:36:17.030Z,26.73
2018-03-07T11:38:44.288Z,24.40
2018-03-07T11:41:11.672Z,25.80
2018-03-07T11:43:38.219Z,29.40
2018-03-07T11:46:04.742Z,31.73
2018-03-07T11:48:31.273Z,27.03
2018-03-07T11:50:57.809Z,33.10
2018-03-07T11:53:24.342Z,29.43
2018-03-07T11:55:50.830Z,29.00
2018-03-07T11:58:17.338Z,28.37
2018-03-07T12:00:43.922Z,28.67
2018-03-07T12:03:10.436Z,23.53
2018-03-07T12:05:36.938Z,21.50
2018-03-07T12:08:03.495Z,19.53
2018-03-07T12:10:30.032Z,21.20
2018-03-07T12:12:56.549Z,22.87
2018-03-07T12:15:23.020Z,20.17
2018-03-07T12:17:49.606Z,17.23
2018-03-07T12:20:16.081Z,17.43
2018-03-07T12:22:42.541Z,12.60
2018-03-07T12:25:09.827Z,14.50
2018-03-07T12:27:36.326Z,14.87
2018-03-07T12:30:02.823Z,19.63
2018-03-07T12:32:29.317Z,18.63
2018-03-07T12:34:55.809Z,26.40
2018-03-07T12:37:22.298Z,17.43
2018-03-07T12:39:48.805Z,16.90
2018-03-07T12:42:16.058Z,15.73
2018-03-07T12:44:43.331Z,19.37
2018-03-07T12:47:09.837Z,22.53
2018-03-07T12:49:36.383Z,21.27
2018-03-07T12:52:02.902Z,21.73
2018-03-07T12:54:29.417Z,19.87
2018-03-07T12:56:55.899Z,21.07
2018-03-07T12:59:23.103Z,21.57
2018-03-07T13:01:49.616Z,19.67
2018-03-07T13:04:16.102Z,18.90
2018-03-07T13:06:43.412Z,19.73
2018-03-07T13:09:09.886Z,25.00
2018-03-07T13:11:36.427Z,20.53
2018-03-07T13:14:02.974Z,16.93
2018-03-07T13:16:29.467Z,19.50
2018-03-07T13:18:56.062Z,19.67
2018-03-07T13:21:22.551Z,15.30
2018-03-07T13:23:49.089Z,14.90
2018-03-07T13:26:15.622Z,15.20
2018-03-07T13:28:42.138Z,14.00
2018-03-07T13:31:09.375Z,15.40
2018-03-07T13:33:35.899Z,16.30
2018-03-07T13:36:02.487Z,19.13
2018-03-07T13:38:28.964Z,17.00
2018-03-07T13:40:55.550Z,20.37
2018-03-07T13:43:22.035Z,20.50
2018-03-07T13:45:48.558Z,20.83
2018-03-07T13:48:15.787Z,28.37
2018-03-07T13:50:42.329Z,18.53
2018-03-07T13:53:08.834Z,20.30
2018-03-07T13:55:35.357Z,16.57
2018-03-07T13:58:01.951Z,15.83
2018-03-07T14:00:28.458Z,19.47
2018-03-07T14:02:55.022Z,15.87
2018-03-07T14:05:21.599Z,18.00
2018-03-07T14:07:48.047Z,18.13
2018-03-07T14:10:14.544Z,17.87
2018-03-07T14:12:41.053Z,16.90
2018-03-07T14:15:08.331Z,14.37
2018-03-07T14:17:34.790Z,17.37
2018-03-07T14:20:01.351Z,19.07
2018-03-07T14:22:28.568Z,15.23
2018-03-07T14:24:55.166Z,19.50
2018-03-07T14:27:21.733Z,15.53
2018-03-07T14:29:48.221Z,20.20
2018-03-07T14:32:15.008Z,18.93
2018-03-07T14:34:49.217Z,18.60
2018-03-07T14:37:17.093Z,18.83
2018-03-07T14:42:28.499Z,18.03
2018-03-07T14:45:03.295Z,18.63
2018-03-07T14:47:30.690Z,20.00
2018-03-07T14:49:57.183Z,20.77
2018-03-07T14:52:23.716Z,20.73
2018-03-07T14:54:50.981Z,23.17
2018-03-07T14:57:18.248Z,19.73
2018-03-07T14:59:44.764Z,18.37
2018-03-07T15:02:11.985Z,20.57
2018-03-07T15:04:38.569Z,19.80
2018-03-07T15:07:05.118Z,20.93
2018-03-07T15:09:31.618Z,19.00
2018-03-07T15:11:58.905Z,21.10
2018-03-07T15:14:25.408Z,21.10
2018-03-07T15:16:51.984Z,23.97
2018-03-07T15:19:18.510Z,22.63
2018-03-07T15:21:45.065Z,23.77
2018-03-07T15:24:11.610Z,24.43
2018-03-07T15:26:38.112Z,21.37
2018-03-07T15:29:04.744Z,24.03
2018-03-07T15:31:31.295Z,24.77
2018-03-07T15:33:57.842Z,27.70
2018-03-07T15:36:24.410Z,27.50
2018-03-07T15:38:50.907Z,23.40
2018-03-07T15:41:17.473Z,21.73
2018-03-07T15:43:44.177Z,23.80
2018-03-07T15:46:10.903Z,19.27
2018-03-07T15:48:37.491Z,24.57
2018-03-07T15:51:04.231Z,16.87
2018-03-07T15:53:30.862Z,19.57
2018-03-07T15:55:57.631Z,17.07
2018-03-07T16:01:37.957Z,21.07
2018-03-07T16:04:04.645Z,20.47
2018-03-07T16:06:31.981Z,23.13
2018-03-07T16:08:58.724Z,21.60
2018-03-07T16:11:25.283Z,20.67
2018-03-07T16:13:51.958Z,17.00
2018-03-07T16:16:18.623Z,22.40
2018-03-07T16:18:45.695Z,19.57
2018-03-07T16:21:12.315Z,20.50
2018-03-07T16:23:40.019Z,17.90
2018-03-07T16:26:07.437Z,20.53
2018-03-07T16:28:34.005Z,16.67
2018-03-07T16:31:00.769Z,20.17
2018-03-07T16:33:27.616Z,18.30
2018-03-07T16:35:54.248Z,27.67
2018-03-07T16:38:21.020Z,19.53
2018-03-07T16:40:48.400Z,22.63
2018-03-07T16:43:15.018Z,16.37
2018-03-07T16:45:41.715Z,25.50
2018-03-07T16:48:08.439Z,24.70
2018-03-07T16:50:35.980Z,29.17
2018-03-07T16:53:02.697Z,25.23
2018-03-07T16:55:29.600Z,26.53
2018-03-07T16:57:57.115Z,29.90
2018-03-07T17:00:23.892Z,22.93
2018-03-07T17:02:51.424Z,23.33
2018-03-07T17:05:18.064Z,26.10
2018-03-07T17:07:44.911Z,25.70
2018-03-07T17:10:11.789Z,28.20
2018-03-07T17:12:38.356Z,25.40
2018-03-07T17:15:04.992Z,25.27
2018-03-07T17:17:31.766Z,25.90
2018-03-07T17:19:58.406Z,25.20
2018-03-07T17:22:25.172Z,30.07
2018-03-07T17:24:52.503Z,32.23
2018-03-07T17:27:19.109Z,28.17
2018-03-07T17:29:45.848Z,24.47
2018-03-07T17:32:12.548Z,30.00
2018-03-07T17:34:39.238Z,26.73
2018-03-07T17:37:06.614Z,28.70
2018-03-07T17:39:33.211Z,32.30
2018-03-07T17:41:59.892Z,30.97
2018-03-07T17:44:26.425Z,39.47
2018-03-07T17:46:53.065Z,32.07
2018-03-07T17:49:19.659Z,33.10
2018-03-07T17:51:46.444Z,31.87
2018-03-07T17:54:12.978Z,34.40
2018-03-07T17:56:40.098Z,34.07
2018-03-07T17:59:06.618Z,31.93
2018-03-07T18:01:33.155Z,37.93
2018-03-07T18:03:59.913Z,36.73
2018-03-07T18:06:27.864Z,31.30
2018-03-07T18:08:54.548Z,37.23
2018-03-07T18:11:21.187Z,30.30
2018-03-07T18:13:47.777Z,32.33
2018-03-07T18:16:14.363Z,33.23
2018-03-07T18:18:40.937Z,34.40
2018-03-07T18:21:08.200Z,36.67
2018-03-07T18:23:34.789Z,34.97
2018-03-07T18:26:01.393Z,42.97
2018-03-07T18:28:27.966Z,45.13
2018-03-07T18:30:54.498Z,48.43
2018-03-07T18:33:21.137Z,52.17
2018-03-07T18:35:47.777Z,72.07
2018-03-07T18:38:15.439Z,67.90
2018-03-07T18:40:42.152Z,74.60
2018-03-07T18:43:08.715Z,75.53
2018-03-07T18:45:35.353Z,67.67
2018-03-07T18:48:03.164Z,60.97
2018-03-07T18:50:29.759Z,48.50
2018-03-07T18:52:56.394Z,47.07
2018-03-07T18:55:23.647Z,45.43
2018-03-07T18:57:50.223Z,41.77
2018-03-07T19:00:16.821Z,39.27
2018-03-07T19:02:43.459Z,46.47
2018-03-07T19:05:11.224Z,37.13
2018-03-07T19:07:39.128Z,38.60
2018-03-07T19:10:06.562Z,39.13
2018-03-07T19:12:33.464Z,40.43
2018-03-07T19:15:00.192Z,35.37
2018-03-07T19:17:26.837Z,38.53
2018-03-07T19:19:53.903Z,35.67
2018-03-07T19:22:21.205Z,33.17
2018-03-07T19:24:48.593Z,36.17
2018-03-07T19:27:17.977Z,32.30
2018-03-07T19:29:44.635Z,37.70
2018-03-07T19:32:11.275Z,36.10
2018-03-07T19:34:37.880Z,34.93
2018-03-07T19:37:05.265Z,30.63
2018-03-07T19:39:31.871Z,38.50
2018-03-07T19:41:59.160Z,34.93
2018-03-07T19:44:25.897Z,35.40
2018-03-07T19:46:52.498Z,34.17
2018-03-07T19:49:19.852Z,32.10
2018-03-07T19:51:46.427Z,36.33
2018-03-07T19:54:13.128Z,41.97
2018-03-07T19:56:40.464Z,32.63
2018-03-07T19:59:07.220Z,34.70
2018-03-07T20:01:34.005Z,32.17
2018-03-07T20:04:00.606Z,35.03
2018-03-07T20:06:28.201Z,34.93
2018-03-07T20:08:54.840Z,35.00
2018-03-07T20:11:21.479Z,34.67
2018-03-07T20:13:48.155Z,29.83
2018-03-07T20:16:14.857Z,36.10
2018-03-07T20:18:41.449Z,40.60
2018-03-07T20:21:09.160Z,31.73
2018-03-07T20:23:35.800Z,32.73
2018-03-07T20:26:02.331Z,36.37
2018-03-07T20:28:28.867Z,36.73
2018-03-07T20:30:55.506Z,35.77
2018-03-07T20:33:22.096Z,35.90
2018-03-07T20:35:48.782Z,41.37
2018-03-07T20:38:15.370Z,37.33
2018-03-07T20:40:41.927Z,37.63
2018-03-07T20:43:08.534Z,42.30
2018-03-07T20:45:36.974Z,41.47
2018-03-07T20:48:03.613Z,39.87
2018-03-07T20:50:30.294Z,38.53
2018-03-07T20:52:56.931Z,41.00
2018-03-07T20:55:23.629Z,39.93
2018-03-07T20:57:50.269Z,40.53
2018-03-07T21:00:16.800Z,41.20
2018-03-07T21:02:43.485Z,39.13
2018-03-07T21:05:10.183Z,40.87
2018-03-07T21:07:36.784Z,37.33
2018-03-07T21:10:03.463Z,41.33
2018-03-07T21:12:29.967Z,35.63
2018-03-07T21:14:57.788Z,45.03
2018-03-07T21:17:24.310Z,39.07
2018-03-07T21:19:50.859Z,40.80
2018-03-07T21:22:17.423Z,38.80
2018-03-07T21:24:44.005Z,42.47
2018-03-07T21:27:10.510Z,41.53
2018-03-07T21:29:37.118Z,46.67
2018-03-07T21:32:04.611Z,39.50
2018-03-07T21:34:31.119Z,40.30
2018-03-07T21:36:57.766Z,36.60
2018-03-07T21:39:24.251Z,40.57
2018-03-07T21:41:50.817Z,40.20
2018-03-07T21:44:17.396Z,43.57
2018-03-07T21:46:44.950Z,40.00
2018-03-07T21:49:11.504Z,42.37
2018-03-07T21:51:38.171Z,42.60
2018-03-07T21:54:04.733Z,43.50
2018-03-07T21:56:31.335Z,39.73
2018-03-07T21:58:57.821Z,40.63
2018-03-07T22:01:25.092Z,38.30
2018-03-07T22:03:51.588Z,37.27
2018-03-07T22:06:18.085Z,40.57
2018-03-07T22:08:44.595Z,40.23
2018-03-07T22:11:11.066Z,42.57
2018-03-07T22:13:37.657Z,41.97
2018-03-07T22:16:04.904Z,37.20
2018-03-07T22:18:31.508Z,39.40
2018-03-07T22:20:58.005Z,37.30
2018-03-07T22:23:24.510Z,39.77
2018-03-07T22:25:51.090Z,37.53
2018-03-07T22:28:17.649Z,40.23
2018-03-07T22:30:44.891Z,36.30
2018-03-07T22:33:11.377Z,36.87
2018-03-07T22:35:38.608Z,36.47
2018-03-07T22:38:05.128Z,39.57
2018-03-07T22:40:31.619Z,39.37
2018-03-07T22:42:58.150Z,37.10
2018-03-07T22:45:24.666Z,38.97
2018-03-07T22:47:51.186Z,38.13
2018-03-07T22:50:18.436Z,40.07
2018-03-07T22:52:44.942Z,37.33
2018-03-07T22:55:11.445Z,39.43
2018-03-07T22:57:37.997Z,43.17
2018-03-07T23:00:04.641Z,36.30
2018-03-07T23:02:31.142Z,35.97
2018-03-07T23:04:57.651Z,38.87
2018-03-07T23:07:24.980Z,37.93
2018-03-07T23:09:51.482Z,25.13
2018-03-07T23:12:17.974Z,30.23
2018-03-07T23:14:44.504Z,33.50
2018-03-07T23:17:11.026Z,28.80
2018-03-07T23:19:37.570Z,21.93
2018-03-07T23:22:04.076Z,17.13
2018-03-07T23:24:30.598Z,14.20
2018-03-07T23:26:57.171Z,10.07
2018-03-07T23:29:23.730Z,9.90
2018-03-07T23:31:50.239Z,8.50
2018-03-07T23:34:17.499Z,6.30
2018-03-07T23:36:44.744Z,4.10
2018-03-07T23:39:11.246Z,5.10
2018-03-07T23:41:37.743Z,2.63
2018-03-07T23:44:04.307Z,4.10
2018-03-07T23:46:31.506Z,3.30
2018-03-07T23:48:58.021Z,2.67
2018-03-07T23:51:25.495Z,2.53
2018-03-07T23:53:51.981Z,2.33
2018-03-07T23:56:18.472Z,1.50
2018-03-07T23:58:44.988Z,1.90
